TNCC

Hato International Airport

Willemstad, Curaçao
TAF TNCC 210400Z 2106/2206 11011KT 9999 SCT018
Issued Valid From Valid To
Jun-21 @ 04:00 UTC
(6 hours ago)
Jun-21 @ 06:00 UTC
(4 hours ago)
Jun-22 @ 06:00 UTC
(in 20 hours)
Jun-21 @ 06:00 to Jun-22 @ 06:00
TAF TNCC 210400Z 2106/2206 11011KT 9999 SCT018
Wind Visibility Clouds
110° at 11 knots 10,000+ meters
  • Scattered at 1,800' AGL
TAF TNCC 210400Z 2106/2206 11011KT 9999 SCT018
Issued Jun-21 @ 04:00 UTC
(6 hours ago)
Valid From Jun-21 @ 06:00 UTC
(4 hours ago)
Valid To Jun-22 @ 06:00 UTC
(in 20 hours)
Jun-21 @ 06:00 - Jun-22 @ 06:00
Wind Visibility
110° at 11 knots 10,000+ meters
Clouds
  • Scattered at 1,800' AGL